createdAt,value
2022-11-14T00:01:05.882Z,48.85
2022-11-14T00:03:32.494Z,51.40
2022-11-14T00:05:59.007Z,53.67
2022-11-14T00:08:25.652Z,52.25
2022-11-14T00:10:52.474Z,50.65
2022-11-14T00:13:21.042Z,52.10
2022-11-14T00:15:54.571Z,64.18
2022-11-14T00:18:22.144Z,58.63
2022-11-14T00:20:50.426Z,59.08
2022-11-14T00:23:17.595Z,57.97
2022-11-14T00:25:45.433Z,57.38
2022-11-14T00:28:12.815Z,55.42
2022-11-14T00:30:39.504Z,55.10
2022-11-14T00:33:06.053Z,53.58
2022-11-14T00:35:32.658Z,54.58
2022-11-14T00:37:59.218Z,54.08
2022-11-14T00:40:25.809Z,52.80
2022-11-14T00:42:52.502Z,53.75
2022-11-14T00:45:19.461Z,55.22
2022-11-14T00:47:45.998Z,54.47
2022-11-14T00:50:12.961Z,55.20
2022-11-14T00:52:39.566Z,54.30
2022-11-14T00:55:06.927Z,55.78
2022-11-14T00:57:33.849Z,55.13
2022-11-14T01:00:00.482Z,55.13
2022-11-14T01:02:27.200Z,56.60
2022-11-14T01:04:54.024Z,54.50
2022-11-14T01:07:20.688Z,59.28
2022-11-14T01:09:47.221Z,58.13
2022-11-14T01:12:13.981Z,56.58
2022-11-14T01:14:41.113Z,60.38
2022-11-14T01:17:28.750Z,63.58
2022-11-14T01:19:55.335Z,61.50
2022-11-14T01:22:21.878Z,63.17
2022-11-14T01:24:48.496Z,61.00
2022-11-14T01:27:15.015Z,55.63
2022-11-14T01:29:41.709Z,54.05
2022-11-14T01:32:08.398Z,55.60
2022-11-14T01:34:35.295Z,54.28
2022-11-14T01:37:01.887Z,51.85
2022-11-14T01:39:28.896Z,52.83
2022-11-14T01:41:55.931Z,51.35
2022-11-14T01:44:44.109Z,49.70
2022-11-14T01:47:13.813Z,47.50
2022-11-14T01:49:44.395Z,49.70
2022-11-14T01:52:16.171Z,48.42
2022-11-14T01:54:46.898Z,49.10
2022-11-14T01:57:18.402Z,49.42
2022-11-14T01:59:51.885Z,51.40
2022-11-14T02:02:21.564Z,52.88
2022-11-14T02:04:53.744Z,54.70
2022-11-14T02:07:20.599Z,54.03
2022-11-14T02:09:49.078Z,51.45
2022-11-14T02:12:18.376Z,51.30
2022-11-14T02:14:47.451Z,50.90
2022-11-14T02:17:29.411Z,51.45
2022-11-14T02:20:10.800Z,49.03
2022-11-14T02:22:39.500Z,47.88
2022-11-14T02:25:07.623Z,48.58
2022-11-14T02:27:35.311Z,47.33
2022-11-14T02:30:14.237Z,47.30
2022-11-14T02:33:11.299Z,46.97
2022-11-14T02:35:27.909Z,52.50
2022-11-14T02:37:54.561Z,50.25
2022-11-14T02:40:21.284Z,50.03
2022-11-14T02:42:48.286Z,49.55
2022-11-14T02:45:14.970Z,50.25
2022-11-14T02:47:41.559Z,47.63
2022-11-14T02:50:08.609Z,47.67
2022-11-14T02:52:35.281Z,49.83
2022-11-14T02:55:01.810Z,47.13
2022-11-14T02:57:28.366Z,46.53
2022-11-14T02:59:54.981Z,45.45
2022-11-14T03:02:21.800Z,46.13
2022-11-14T03:04:48.414Z,47.58
2022-11-14T03:07:15.088Z,49.13
2022-11-14T03:09:41.757Z,46.83
2022-11-14T03:12:08.568Z,46.33
2022-11-14T03:14:35.410Z,47.25
2022-11-14T03:17:02.283Z,46.67
2022-11-14T03:19:28.857Z,44.60
2022-11-14T03:21:55.464Z,45.80
2022-11-14T03:24:22.439Z,45.15
2022-11-14T03:26:49.006Z,44.70
2022-11-14T03:29:15.743Z,46.45
2022-11-14T03:31:42.733Z,43.60
2022-11-14T03:34:10.670Z,44.33
2022-11-14T03:36:38.012Z,43.67
2022-11-14T03:39:05.769Z,41.80
2022-11-14T03:41:32.943Z,38.90
2022-11-14T03:43:59.698Z,38.40
2022-11-14T03:46:26.281Z,40.90
2022-11-14T03:48:52.951Z,38.75
2022-11-14T03:51:19.545Z,37.60
2022-11-14T03:53:46.209Z,39.22
2022-11-14T03:56:12.987Z,37.72
2022-11-14T03:58:39.694Z,38.45
2022-11-14T04:01:06.406Z,38.03
2022-11-14T04:03:33.148Z,48.30
2022-11-14T04:05:59.873Z,47.10
2022-11-14T04:08:26.532Z,41.17
2022-11-14T04:10:53.155Z,42.83
2022-11-14T04:13:19.752Z,47.15
2022-11-14T04:15:46.442Z,40.65
2022-11-14T04:18:13.142Z,37.28
2022-11-14T04:20:39.766Z,38.90
2022-11-14T04:23:06.392Z,36.72
2022-11-14T04:25:32.943Z,37.28
2022-11-14T04:27:59.870Z,38.17
2022-11-14T04:30:29.696Z,38.25
2022-11-14T04:32:58.670Z,37.45
2022-11-14T04:35:25.290Z,36.80
2022-11-14T04:37:51.981Z,36.85
2022-11-14T04:40:18.619Z,35.42
2022-11-14T04:43:03.788Z,36.65
2022-11-14T04:45:30.547Z,35.65
2022-11-14T04:47:57.213Z,36.70
2022-11-14T04:50:23.974Z,36.20
2022-11-14T04:52:53.933Z,35.50
2022-11-14T04:55:20.630Z,36.95
2022-11-14T04:57:47.526Z,35.95
2022-11-14T05:00:14.850Z,37.08
2022-11-14T05:02:41.463Z,37.33
2022-11-14T05:05:08.516Z,36.17
2022-11-14T05:07:35.267Z,35.85
2022-11-14T05:10:02.013Z,37.03
2022-11-14T05:12:28.604Z,39.70
2022-11-14T05:14:55.184Z,38.58
2022-11-14T05:17:22.690Z,39.67
2022-11-14T05:19:49.359Z,40.47
2022-11-14T05:22:16.027Z,40.35
2022-11-14T05:24:42.637Z,43.28
2022-11-14T05:27:09.181Z,40.28
2022-11-14T05:29:35.853Z,43.83
2022-11-14T05:32:02.670Z,45.75
2022-11-14T05:34:29.279Z,49.42
2022-11-14T05:36:55.927Z,46.38
2022-11-14T05:39:22.525Z,46.47
2022-11-14T05:41:49.039Z,48.50
2022-11-14T05:44:15.639Z,54.13
2022-11-14T05:46:42.326Z,46.25
2022-11-14T05:49:09.054Z,48.70
2022-11-14T05:51:35.689Z,51.83
2022-11-14T05:54:02.722Z,50.58
2022-11-14T05:56:29.427Z,51.17
2022-11-14T05:58:56.372Z,50.60
2022-11-14T06:01:23.071Z,47.70
2022-11-14T06:03:50.073Z,49.25
2022-11-14T06:06:19.909Z,51.03
2022-11-14T06:08:47.309Z,49.97
2022-11-14T06:11:20.052Z,52.60
2022-11-14T06:13:47.368Z,53.40
2022-11-14T06:16:16.721Z,50.83
2022-11-14T06:18:43.804Z,50.88
2022-11-14T06:21:13.003Z,50.65
2022-11-14T06:23:40.145Z,50.15
2022-11-14T06:26:12.932Z,55.17
2022-11-14T06:28:39.655Z,51.50
2022-11-14T06:31:06.196Z,49.78
2022-11-14T06:33:36.959Z,52.63
2022-11-14T06:36:08.489Z,50.13
2022-11-14T06:38:37.146Z,47.85
2022-11-14T06:41:18.855Z,51.53
2022-11-14T06:43:47.806Z,48.65
2022-11-14T06:46:17.758Z,51.08
2022-11-14T06:48:45.324Z,47.33
2022-11-14T06:51:13.379Z,48.60
2022-11-14T06:53:40.493Z,46.30
2022-11-14T06:56:15.614Z,47.17
2022-11-14T06:58:48.298Z,44.08
2022-11-14T07:01:17.921Z,46.80
2022-11-14T07:03:45.882Z,45.50
2022-11-14T07:06:18.167Z,42.60
2022-11-14T07:08:44.816Z,37.95
2022-11-14T07:11:23.511Z,40.90
2022-11-14T07:13:52.198Z,37.47
2022-11-14T07:16:19.956Z,38.38
2022-11-14T07:18:46.995Z,35.92
2022-11-14T07:21:13.769Z,32.45
2022-11-14T07:23:41.611Z,31.80
2022-11-14T07:26:11.645Z,33.25
2022-11-14T07:28:40.582Z,33.20
2022-11-14T07:31:09.287Z,36.42
2022-11-14T07:33:36.446Z,35.60
2022-11-14T07:36:03.781Z,37.17
2022-11-14T07:38:31.702Z,34.55
2022-11-14T07:41:01.356Z,36.22
2022-11-14T07:43:29.108Z,34.00
2022-11-14T07:46:00.178Z,34.75
2022-11-14T07:48:27.709Z,34.15
2022-11-14T07:50:59.176Z,35.88
2022-11-14T07:53:25.844Z,35.58
2022-11-14T07:55:52.704Z,34.80
2022-11-14T07:58:19.266Z,41.17
2022-11-14T08:00:45.956Z,40.20
2022-11-14T08:03:12.915Z,39.83
2022-11-14T08:05:39.559Z,40.53
2022-11-14T08:08:06.259Z,38.50
2022-11-14T08:10:33.973Z,39.67
2022-11-14T08:13:31.814Z,40.25
2022-11-14T08:15:49.836Z,39.13
2022-11-14T08:18:16.464Z,35.78
2022-11-14T08:20:44.073Z,34.33
2022-11-14T08:23:15.159Z,35.97
2022-11-14T08:25:42.313Z,35.85
2022-11-14T08:28:09.308Z,36.80
2022-11-14T08:30:36.032Z,37.22
2022-11-14T08:33:04.708Z,35.20
2022-11-14T08:35:33.314Z,36.45
2022-11-14T08:38:02.801Z,34.50
2022-11-14T08:40:29.887Z,32.63
2022-11-14T08:43:02.167Z,32.38
2022-11-14T08:45:29.756Z,32.38
2022-11-14T08:47:56.919Z,32.15
2022-11-14T08:50:24.546Z,32.47
2022-11-14T08:52:52.225Z,31.27
2022-11-14T08:55:20.192Z,28.58
2022-11-14T08:57:49.716Z,30.17
2022-11-14T09:00:17.425Z,28.60
2022-11-14T09:02:44.170Z,29.83
2022-11-14T09:05:11.604Z,30.25
2022-11-14T09:07:38.378Z,31.65
2022-11-14T09:10:06.334Z,30.77
2022-11-14T09:12:33.539Z,30.63
2022-11-14T09:15:00.442Z,31.85
2022-11-14T09:17:27.517Z,32.05
2022-11-14T09:19:54.357Z,32.42
2022-11-14T09:22:20.908Z,32.08
2022-11-14T09:24:47.846Z,35.05
2022-11-14T09:27:14.605Z,33.65
2022-11-14T09:29:41.215Z,34.20
2022-11-14T09:32:07.879Z,35.95
2022-11-14T09:34:34.738Z,35.63
2022-11-14T09:37:01.292Z,36.35
2022-11-14T09:39:28.010Z,33.88
2022-11-14T09:41:57.956Z,35.75
2022-11-14T09:44:43.331Z,36.35
2022-11-14T09:47:21.461Z,32.70
2022-11-14T09:49:51.560Z,35.97
2022-11-14T09:52:30.285Z,34.47
2022-11-14T09:54:59.309Z,39.17
2022-11-14T09:57:26.941Z,37.05
2022-11-14T09:59:53.627Z,36.67
2022-11-14T10:02:41.749Z,39.13
2022-11-14T10:05:24.794Z,40.10
2022-11-14T10:08:07.381Z,38.65
2022-11-14T10:10:49.286Z,40.50
2022-11-14T10:13:55.525Z,41.53
2022-11-14T10:16:38.944Z,39.75
2022-11-14T10:19:40.036Z,41.80
2022-11-14T10:22:27.699Z,42.08
2022-11-14T10:25:29.342Z,42.88
2022-11-14T10:28:39.617Z,43.15
2022-11-14T10:31:15.098Z,42.50
2022-11-14T10:33:53.946Z,41.42
2022-11-14T10:36:29.422Z,42.72
2022-11-14T10:39:10.982Z,38.92
2022-11-14T10:44:32.824Z,41.78
2022-11-14T10:47:03.883Z,41.47
2022-11-14T10:49:36.205Z,40.70
2022-11-14T10:52:07.974Z,39.65
2022-11-14T10:54:41.891Z,42.00
2022-11-14T10:57:20.637Z,40.40
2022-11-14T10:59:47.621Z,40.42
2022-11-14T11:02:17.140Z,40.55
2022-11-14T11:04:45.466Z,41.67
2022-11-14T11:07:32.020Z,39.85
2022-11-14T11:10:21.384Z,40.40
2022-11-14T11:12:51.471Z,40.92
2022-11-14T11:15:29.806Z,40.65
2022-11-14T11:18:01.973Z,40.33
2022-11-14T11:20:28.647Z,40.53
2022-11-14T11:23:07.324Z,42.50
2022-11-14T11:25:34.524Z,42.78
2022-11-14T11:28:22.177Z,41.50
2022-11-14T11:30:57.001Z,42.75
2022-11-14T11:33:23.792Z,41.95
2022-11-14T11:35:52.992Z,41.72
2022-11-14T11:38:20.654Z,43.53
2022-11-14T11:40:51.954Z,41.67
2022-11-14T11:43:41.847Z,42.38
2022-11-14T11:46:26.850Z,41.50
2022-11-14T11:49:01.260Z,43.38
2022-11-14T11:51:28.826Z,44.17
2022-11-14T11:54:12.309Z,42.03
2022-11-14T11:56:40.240Z,44.00
2022-11-14T11:59:42.807Z,45.38
2022-11-14T12:02:26.883Z,45.10
2022-11-14T12:04:56.472Z,43.92
2022-11-14T12:07:31.100Z,44.33
2022-11-14T12:10:10.790Z,45.83
2022-11-14T12:12:43.586Z,45.08
2022-11-14T12:15:51.399Z,46.17
2022-11-14T12:18:31.538Z,45.53
2022-11-14T12:21:20.440Z,45.30
2022-11-14T12:24:02.093Z,47.33
2022-11-14T12:26:35.383Z,45.50
2022-11-14T12:29:19.799Z,48.08
2022-11-14T12:31:57.268Z,48.65
2022-11-14T12:34:32.520Z,47.67
2022-11-14T12:37:00.037Z,46.75
2022-11-14T12:39:31.639Z,46.22
2022-11-14T12:42:04.459Z,47.03
2022-11-14T12:44:34.091Z,46.83
2022-11-14T12:47:06.629Z,48.83
2022-11-14T12:49:38.605Z,48.83
2022-11-14T12:52:25.489Z,47.90
2022-11-14T12:54:52.265Z,46.88
2022-11-14T12:57:49.009Z,47.70
2022-11-14T13:00:18.313Z,47.67
2022-11-14T13:03:27.248Z,46.97
2022-11-14T13:06:20.062Z,48.95
2022-11-14T13:08:55.175Z,47.70
2022-11-14T13:12:01.769Z,48.22
2022-11-14T13:14:48.343Z,48.05
2022-11-14T13:17:36.568Z,47.85
2022-11-14T13:20:47.836Z,50.30
2022-11-14T13:23:30.041Z,47.38
2022-11-14T13:26:12.172Z,46.58
2022-11-14T13:28:38.763Z,49.05
2022-11-14T13:31:17.480Z,48.97
2022-11-14T13:33:49.139Z,48.08
2022-11-14T13:36:33.101Z,48.25
2022-11-14T13:39:34.453Z,48.50
2022-11-14T13:42:39.289Z,48.00
2022-11-14T13:45:37.746Z,48.83
2022-11-14T13:48:23.644Z,48.60
2022-11-14T13:51:06.272Z,49.53
2022-11-14T13:53:42.831Z,47.58
2022-11-14T13:56:36.937Z,47.15
2022-11-14T13:59:28.035Z,47.00
2022-11-14T14:02:36.695Z,49.42
2022-11-14T14:05:12.274Z,48.28
2022-11-14T14:07:41.484Z,47.53
2022-11-14T14:10:26.646Z,48.28
2022-11-14T14:13:05.396Z,47.85
2022-11-14T14:16:09.933Z,49.33
2022-11-14T14:18:52.588Z,48.53
2022-11-14T14:21:33.834Z,48.40
2022-11-14T14:24:23.024Z,45.92
2022-11-14T14:27:08.236Z,49.15
2022-11-14T14:29:45.642Z,47.97
2022-11-14T14:32:18.186Z,47.47
2022-11-14T14:34:45.138Z,49.88
2022-11-14T14:40:28.789Z,47.72
2022-11-14T14:42:59.282Z,48.65
2022-11-14T14:45:28.402Z,46.70
2022-11-14T14:48:06.810Z,46.45
2022-11-14T14:50:39.444Z,47.85
2022-11-14T14:53:06.490Z,45.88
2022-11-14T14:55:35.828Z,46.92
2022-11-14T14:58:26.388Z,47.25
2022-11-14T15:00:56.966Z,47.30
2022-11-14T15:03:25.995Z,48.83
2022-11-14T15:06:00.901Z,49.00
2022-11-14T15:08:30.984Z,49.80
2022-11-14T15:11:00.568Z,48.22
2022-11-14T15:13:29.818Z,51.30
2022-11-14T15:15:58.153Z,52.13
2022-11-14T15:18:29.714Z,51.80
2022-11-14T15:21:24.632Z,51.22
2022-11-14T15:24:03.718Z,50.90
2022-11-14T15:26:31.734Z,51.65
2022-11-14T15:29:17.810Z,52.42
2022-11-14T15:31:50.479Z,51.78
2022-11-14T15:34:35.275Z,53.83
2022-11-14T15:37:13.310Z,52.45
2022-11-14T15:39:41.408Z,52.92
2022-11-14T15:42:29.380Z,53.25
2022-11-14T15:44:56.367Z,53.10
2022-11-14T15:47:40.405Z,53.42
2022-11-14T15:50:12.899Z,53.55
2022-11-14T15:52:56.394Z,54.03
2022-11-14T15:55:24.154Z,54.47
2022-11-14T15:58:00.895Z,53.92
2022-11-14T16:00:44.610Z,59.53
2022-11-14T16:03:14.389Z,61.22
2022-11-14T16:05:41.323Z,60.67
2022-11-14T16:08:11.265Z,60.15
2022-11-14T16:10:38.252Z,60.83
2022-11-14T16:13:05.835Z,60.88
2022-11-14T16:15:32.493Z,60.30
2022-11-14T16:17:59.135Z,61.08
2022-11-14T16:20:32.707Z,62.28
2022-11-14T16:23:01.234Z,61.35
2022-11-14T16:25:30.064Z,63.67
2022-11-14T16:27:56.745Z,62.20
2022-11-14T16:30:25.273Z,61.92
2022-11-14T16:32:52.885Z,61.67
2022-11-14T16:35:21.434Z,67.45
2022-11-14T16:37:48.491Z,63.20
2022-11-14T16:40:23.262Z,64.45
2022-11-14T16:42:50.878Z,66.18
2022-11-14T16:45:20.651Z,67.63
2022-11-14T16:47:48.434Z,66.68
2022-11-14T16:50:15.644Z,67.10
2022-11-14T16:52:42.211Z,66.68
2022-11-14T16:55:11.046Z,65.80
2022-11-14T16:57:38.830Z,73.47
2022-11-14T17:00:08.519Z,71.82
2022-11-14T17:02:35.135Z,68.88
2022-11-14T17:05:01.870Z,68.22
2022-11-14T17:07:33.058Z,69.43
2022-11-14T17:10:00.621Z,71.57
2022-11-14T17:12:28.282Z,72.90
2022-11-14T17:14:54.827Z,75.43
2022-11-14T17:17:21.896Z,68.63
2022-11-14T17:19:48.819Z,64.00
2022-11-14T17:22:18.339Z,69.88
2022-11-14T17:24:44.996Z,64.30
2022-11-14T17:27:13.242Z,65.22
2022-11-14T17:29:40.044Z,66.03
2022-11-14T17:32:06.928Z,66.45
2022-11-14T17:34:33.610Z,65.60
2022-11-14T17:37:00.578Z,68.75
2022-11-14T17:39:27.231Z,69.80
2022-11-14T17:41:53.884Z,71.70
2022-11-14T17:44:20.547Z,69.55
2022-11-14T17:46:48.191Z,70.80
2022-11-14T17:49:14.820Z,69.85
2022-11-14T17:51:41.609Z,71.18
2022-11-14T17:54:09.073Z,64.90
2022-11-14T17:56:35.717Z,63.50
2022-11-14T17:59:03.062Z,65.70
2022-11-14T18:01:31.482Z,67.55
2022-11-14T18:04:03.021Z,68.38
2022-11-14T18:06:33.797Z,67.15
2022-11-14T18:09:04.863Z,72.70
2022-11-14T18:11:32.620Z,70.35
2022-11-14T18:13:59.214Z,71.05
2022-11-14T18:16:31.349Z,72.60
2022-11-14T18:19:01.784Z,73.57
2022-11-14T18:21:28.779Z,69.30
2022-11-14T18:23:58.166Z,69.95
2022-11-14T18:26:29.896Z,71.75
2022-11-14T18:29:02.404Z,72.30
2022-11-14T18:31:29.598Z,69.95
2022-11-14T18:33:57.033Z,70.88
2022-11-14T18:36:24.430Z,70.03
2022-11-14T18:38:51.050Z,70.38
2022-11-14T18:41:21.155Z,70.70
2022-11-14T18:43:49.042Z,74.00
2022-11-14T18:46:18.541Z,71.22
2022-11-14T18:48:47.229Z,72.57
2022-11-14T18:51:19.933Z,72.57
2022-11-14T18:53:47.092Z,75.95
2022-11-14T18:56:16.208Z,71.80
2022-11-14T18:58:44.111Z,71.63
2022-11-14T19:01:24.148Z,69.53
2022-11-14T19:04:11.930Z,72.95
2022-11-14T19:06:40.714Z,70.40
2022-11-14T19:09:15.906Z,70.72
2022-11-14T19:12:01.715Z,68.80
2022-11-14T19:14:28.805Z,69.60
2022-11-14T19:16:55.501Z,67.57
2022-11-14T19:19:22.351Z,68.60
2022-11-14T19:21:50.770Z,68.78
2022-11-14T19:24:18.184Z,62.60
2022-11-14T19:26:44.964Z,55.40
2022-11-14T19:29:13.916Z,57.05
2022-11-14T19:31:42.090Z,51.88
2022-11-14T19:34:09.900Z,58.38
2022-11-14T19:39:24.129Z,63.10
2022-11-14T19:41:50.761Z,48.72
2022-11-14T19:44:17.293Z,68.25
2022-11-14T19:46:47.492Z,61.58
2022-11-14T19:49:15.339Z,56.03
2022-11-14T19:51:42.088Z,53.95
2022-11-14T19:54:10.050Z,55.42
2022-11-14T19:56:37.025Z,82.30
2022-11-14T19:59:09.579Z,100.47
2022-11-14T20:01:40.246Z,102.25
2022-11-14T20:04:07.615Z,122.43
2022-11-14T20:06:36.482Z,127.82
2022-11-14T20:09:08.843Z,124.90
2022-11-14T20:11:36.132Z,137.52
2022-11-14T20:14:02.964Z,107.97
2022-11-14T20:16:35.625Z,110.93
2022-11-14T20:19:02.219Z,146.18
2022-11-14T20:21:32.490Z,140.95
2022-11-14T20:23:59.575Z,134.45
2022-11-14T20:26:26.741Z,131.35
2022-11-14T20:28:54.668Z,136.25
2022-11-14T20:31:27.385Z,129.98
2022-11-14T20:33:55.332Z,135.07
2022-11-14T20:36:32.035Z,140.07
2022-11-14T20:39:02.282Z,138.85
2022-11-14T20:41:28.880Z,142.82
2022-11-14T20:43:55.485Z,137.32
2022-11-14T20:46:22.301Z,138.85
2022-11-14T20:48:49.336Z,144.73
2022-11-14T20:51:21.575Z,147.60
2022-11-14T20:53:50.085Z,173.25
2022-11-14T20:56:17.217Z,161.98
2022-11-14T20:58:45.566Z,159.10
2022-11-14T21:01:13.055Z,144.82
2022-11-14T21:03:40.200Z,140.73
2022-11-14T21:06:08.225Z,143.65
2022-11-14T21:08:36.412Z,142.93
2022-11-14T21:11:08.682Z,145.77
2022-11-14T21:13:55.899Z,159.43
2022-11-14T21:16:35.659Z,170.38
2022-11-14T21:19:04.085Z,162.07
2022-11-14T21:21:34.873Z,155.65
2022-11-14T21:24:02.020Z,163.85
2022-11-14T21:26:31.326Z,159.10
2022-11-14T21:29:00.970Z,148.55
2022-11-14T21:31:32.033Z,143.43
2022-11-14T21:34:00.425Z,132.70
2022-11-14T21:36:45.407Z,133.70
2022-11-14T21:39:15.446Z,130.68
2022-11-14T21:41:43.390Z,133.18
2022-11-14T21:44:15.041Z,126.00
2022-11-14T21:46:41.994Z,124.95
2022-11-14T21:49:09.195Z,119.90
2022-11-14T21:51:36.075Z,121.75
2022-11-14T21:54:06.632Z,119.65
2022-11-14T21:56:35.242Z,113.63
2022-11-14T21:59:16.000Z,119.63
2022-11-14T22:02:08.488Z,118.45
2022-11-14T22:04:35.968Z,114.22
2022-11-14T22:07:07.466Z,107.90
2022-11-14T22:09:35.099Z,116.15
2022-11-14T22:12:02.271Z,117.18
2022-11-14T22:14:29.937Z,116.25
2022-11-14T22:16:58.028Z,116.90
2022-11-14T22:19:25.632Z,118.80
2022-11-14T22:21:53.076Z,105.07
2022-11-14T22:24:19.753Z,114.55
2022-11-14T22:26:46.406Z,110.15
2022-11-14T22:29:13.130Z,105.45
2022-11-14T22:31:39.830Z,97.78
2022-11-14T22:34:06.977Z,95.00
2022-11-14T22:36:33.820Z,93.63
2022-11-14T22:39:00.478Z,90.88
2022-11-14T22:41:33.485Z,78.22
2022-11-14T22:44:01.452Z,72.93
2022-11-14T22:46:28.685Z,82.53
2022-11-14T22:48:55.602Z,82.95
2022-11-14T22:51:24.288Z,86.53
2022-11-14T22:53:53.712Z,95.60
2022-11-14T22:56:23.461Z,68.55
2022-11-14T22:58:50.814Z,72.15
2022-11-14T23:01:26.289Z,71.63
2022-11-14T23:04:01.192Z,67.15
2022-11-14T23:06:30.624Z,67.95
2022-11-14T23:08:57.658Z,66.93
2022-11-14T23:11:29.704Z,66.43
2022-11-14T23:13:57.520Z,72.32
2022-11-14T23:16:26.541Z,74.03
2022-11-14T23:18:55.524Z,71.47
2022-11-14T23:21:25.427Z,70.28
2022-11-14T23:23:53.618Z,72.60
2022-11-14T23:26:20.982Z,72.72
2022-11-14T23:28:47.621Z,72.40
2022-11-14T23:31:19.517Z,75.22
2022-11-14T23:33:47.074Z,73.30
2022-11-14T23:36:14.239Z,74.60
2022-11-14T23:38:41.762Z,74.32
2022-11-14T23:41:16.093Z,75.82
2022-11-14T23:43:42.907Z,71.55
2022-11-14T23:46:09.576Z,71.70
2022-11-14T23:48:36.228Z,74.60
2022-11-14T23:51:03.039Z,71.72
2022-11-14T23:53:30.488Z,69.10
2022-11-14T23:55:59.592Z,65.72
2022-11-14T23:58:27.871Z,67.03
